Taganrogskiy Zaliv — 3FFY5 — position and weather

sailwx.info

Track history (hours):
 
Tides and Currents Weather Stations Pressure Air Temp Water Temp Dewpoint Dewpoint Depression Visibility Wind Speed Wind Dir Waves Ship Positions

Taganrogskiy Zaliv

Last reported at 2017-Nov-01 02:00 UTC. Time now 2017-Nov-20 20:58 UTC.
Position S 29°21' E 031°45'.
Warning: this ship's position is 19 days out of date.

Length 150 m; draft 8.2 m.

Type: Cargo ship. MMSI: 354240000.

Date/timePositionNaut miles runAvg speedWind from/ knotsBaromVisibWave heightAir tempDewpointWater temp
2017-Nov-01 02:00S 29°21' E 031°45'713.0
2017-Nov-01 01:30S 29°25' E 031°40'612.9
2017-Nov-01 01:00S 29°30' E 031°35'612.8
2017-Nov-01 00:30S 29°34' E 031°30'612.7
2017-Nov-01 00:00S 29°39' E 031°24'612.6
2017-Oct-31 23:30S 29°43' E 031°19'612.7
2017-Oct-31 23:00S 29°47' E 031°13'612.6
2017-Oct-31 22:30S 29°50' E 031°07'5 9.0
2017-Oct-31 22:00S 29°53' E 031°03'1 1.7
2017-Oct-31 21:30S 29°52' E 031°02'0 0.0
2017-Oct-31 21:00S 29°52' E 031°02'0 0.0
2017-Oct-31 20:31S 29°52' E 031°02'0 0.0
2017-Oct-31 20:01S 29°52' E 031°02'0 0.0
2017-Oct-31 19:30S 29°52' E 031°02'0 0.0
2017-Oct-31 19:00S 29°52' E 031°02'0 0.0
2017-Oct-31 18:30S 29°52' E 031°02'0 0.0
2017-Oct-31 18:01S 29°52' E 031°02'0 0.0
2017-Oct-31 17:30S 29°52' E 031°02'0 0.0
2017-Oct-31 17:00S 29°52' E 031°02'0 0.0
2017-Oct-31 16:30S 29°52' E 031°02'0 0.0
2017-Oct-31 16:00S 29°52' E 031°02'0 0.0
2017-Oct-31 15:30S 29°52' E 031°02'0 0.0
2017-Oct-31 15:00S 29°52' E 031°02'0 0.0
2017-Oct-31 14:30S 29°52' E 031°02'0 0.0
2017-Oct-31 14:00S 29°52' E 031°02'0 0.0
2017-Oct-31 13:30S 29°52' E 031°02'0 0.0
2017-Oct-31 13:00S 29°52' E 031°02'0 0.0
2017-Oct-31 12:30S 29°52' E 031°02'0 0.0
2017-Oct-31 12:00S 29°52' E 031°02'0 0.0
2017-Oct-31 11:30S 29°52' E 031°02'0 0.0
2017-Oct-31 11:00S 29°52' E 031°02'0 0.0
2017-Oct-31 10:30S 29°52' E 031°02'0 0.0
2017-Oct-31 10:00S 29°52' E 031°02'0 0.0
2017-Oct-31 09:30S 29°52' E 031°02'0 0.0
2017-Oct-31 09:00S 29°52' E 031°02'0 0.0
2017-Oct-31 08:30S 29°52' E 031°02'0 0.0
2017-Oct-31 08:00S 29°52' E 031°02'0 0.0
2017-Oct-31 07:30S 29°52' E 031°02'1 1.5
2017-Oct-31 07:00S 29°53' E 031°03'4 6.5
2017-Oct-31 06:20S 29°49' E 031°06'0 0.7
2017-Oct-31 06:00S 29°49' E 031°06'2 3.5
2017-Oct-31 05:31S 29°51' E 031°05'0 0.8
2017-Oct-31 05:00S 29°50' E 031°05'1 2.4
2017-Oct-31 04:31S 29°50' E 031°06'4 8.6
2017-Oct-31 04:00S 29°51' E 031°11'1 1.7
2017-Oct-31 03:30S 29°50' E 031°12'1 1.1
2017-Oct-31 03:00S 29°50' E 031°12'2 4.6
2017-Oct-31 02:30S 29°52' E 031°11'2 4.9
2017-Oct-31 02:00S 29°54' E 031°12'1 2.6
2017-Oct-31 01:30S 29°55' E 031°14'612.1
2017-Oct-31 01:00S 29°58' E 031°20'613.0
2017-Oct-31 00:30S 30°02' E 031°26'713.1
2017-Oct-31 00:00S 30°05' E 031°32'613.0
2017-Oct-30 23:30S 30°09' E 031°38'713.0
2017-Oct-30 22:59S 30°13' E 031°44'713.2
2017-Oct-30 22:26S 30°17' E 031°52'612.8
2017-Oct-30 21:58S 30°20' E 031°57'612.7
2017-Oct-30 21:30S 30°24' E 032°03'2113.0
2017-Oct-30 19:53S 30°35' E 032°23'514.0
2017-Oct-30 19:30S 30°38' E 032°28'714.1
2017-Oct-30 19:00S 30°42' E 032°35'914.5
2017-Oct-30 18:25S 30°47' E 032°43'5414.5
2017-Oct-30 14:43S 31°17' E 033°35'714.2
2017-Oct-30 14:12S 31°21' E 033°42'  
Track history (hours):
 
Tides and Currents Weather Stations Pressure Air Temp Water Temp Dewpoint Dewpoint Depression Visibility Wind Speed Wind Dir Waves Ship Positions

Taganrogskiy Zaliv

Last reported at 2017-Nov-01 02:00 UTC. Time now 2017-Nov-20 20:58 UTC.
Position S 29°21' E 031°45'.
Warning: this ship's position is 19 days out of date.

Length 150 m; draft 8.2 m.

Type: Cargo ship. MMSI: 354240000.

Date/timePositionNaut miles runAvg speedWind from/ knotsBaromVisibWave heightAir tempDewpointWater temp
2017-Nov-01 02:00S 29°21' E 031°45'713.0
2017-Nov-01 01:30S 29°25' E 031°40'612.9
2017-Nov-01 01:00S 29°30' E 031°35'612.8
2017-Nov-01 00:30S 29°34' E 031°30'612.7
2017-Nov-01 00:00S 29°39' E 031°24'612.6
2017-Oct-31 23:30S 29°43' E 031°19'612.7
2017-Oct-31 23:00S 29°47' E 031°13'612.6
2017-Oct-31 22:30S 29°50' E 031°07'5 9.0
2017-Oct-31 22:00S 29°53' E 031°03'1 1.7
2017-Oct-31 21:30S 29°52' E 031°02'0 0.0
2017-Oct-31 21:00S 29°52' E 031°02'0 0.0
2017-Oct-31 20:31S 29°52' E 031°02'0 0.0
2017-Oct-31 20:01S 29°52' E 031°02'0 0.0
2017-Oct-31 19:30S 29°52' E 031°02'0 0.0
2017-Oct-31 19:00S 29°52' E 031°02'0 0.0
2017-Oct-31 18:30S 29°52' E 031°02'0 0.0
2017-Oct-31 18:01S 29°52' E 031°02'0 0.0
2017-Oct-31 17:30S 29°52' E 031°02'0 0.0
2017-Oct-31 17:00S 29°52' E 031°02'0 0.0
2017-Oct-31 16:30S 29°52' E 031°02'0 0.0
2017-Oct-31 16:00S 29°52' E 031°02'0 0.0
2017-Oct-31 15:30S 29°52' E 031°02'0 0.0
2017-Oct-31 15:00S 29°52' E 031°02'0 0.0
2017-Oct-31 14:30S 29°52' E 031°02'0 0.0
2017-Oct-31 14:00S 29°52' E 031°02'0 0.0
2017-Oct-31 13:30S 29°52' E 031°02'0 0.0
2017-Oct-31 13:00S 29°52' E 031°02'0 0.0
2017-Oct-31 12:30S 29°52' E 031°02'0 0.0
2017-Oct-31 12:00S 29°52' E 031°02'0 0.0
2017-Oct-31 11:30S 29°52' E 031°02'0 0.0
2017-Oct-31 11:00S 29°52' E 031°02'0 0.0
2017-Oct-31 10:30S 29°52' E 031°02'0 0.0
2017-Oct-31 10:00S 29°52' E 031°02'0 0.0
2017-Oct-31 09:30S 29°52' E 031°02'0 0.0
2017-Oct-31 09:00S 29°52' E 031°02'0 0.0
2017-Oct-31 08:30S 29°52' E 031°02'0 0.0
2017-Oct-31 08:00S 29°52' E 031°02'0 0.0
2017-Oct-31 07:30S 29°52' E 031°02'1 1.5
2017-Oct-31 07:00S 29°53' E 031°03'4 6.5
2017-Oct-31 06:20S 29°49' E 031°06'0 0.7
2017-Oct-31 06:00S 29°49' E 031°06'2 3.5
2017-Oct-31 05:31S 29°51' E 031°05'0 0.8
2017-Oct-31 05:00S 29°50' E 031°05'1 2.4
2017-Oct-31 04:31S 29°50' E 031°06'4 8.6
2017-Oct-31 04:00S 29°51' E 031°11'1 1.7
2017-Oct-31 03:30S 29°50' E 031°12'1 1.1
2017-Oct-31 03:00S 29°50' E 031°12'2 4.6
2017-Oct-31 02:30S 29°52' E 031°11'2 4.9
2017-Oct-31 02:00S 29°54' E 031°12'1 2.6
2017-Oct-31 01:30S 29°55' E 031°14'612.1
2017-Oct-31 01:00S 29°58' E 031°20'613.0
2017-Oct-31 00:30S 30°02' E 031°26'713.1
2017-Oct-31 00:00S 30°05' E 031°32'613.0
2017-Oct-30 23:30S 30°09' E 031°38'713.0
2017-Oct-30 22:59S 30°13' E 031°44'713.2
2017-Oct-30 22:26S 30°17' E 031°52'612.8
2017-Oct-30 21:58S 30°20' E 031°57'612.7
2017-Oct-30 21:30S 30°24' E 032°03'2113.0
2017-Oct-30 19:53S 30°35' E 032°23'514.0
2017-Oct-30 19:30S 30°38' E 032°28'714.1
2017-Oct-30 19:00S 30°42' E 032°35'914.5
2017-Oct-30 18:25S 30°47' E 032°43'5414.5
2017-Oct-30 14:43S 31°17' E 033°35'714.2
2017-Oct-30 14:12S 31°21' E 033°42'  

Dump ship's entire track history